Time;durP1;ratioP1;P1;durP2;ratioP2;P2;SDS_P1;SDS_P2;PMS_P1;PMS_P2;Temp;Humidity;BMP_temperature;BMP_pressure;BME280_temperature;BME280_humidity;BME280_pressure;Samples;Min_cycle;Max_cycle;Signal;HPM_P1;HPM_P2
2023/06/01 00:01:38;;;;;;;5.68;2.60;;;17.30;42.60;;;19.23;34.69;97790.84;5060604;28;20412;-36
2023/06/01 00:04:07;;;;;;;5.93;2.78;;;17.40;42.40;;;19.24;34.59;97791.66;5060088;28;20057;-36
2023/06/01 00:06:35;;;;;;;5.13;2.53;;;17.40;42.30;;;19.22;34.78;97783.78;5061972;28;20056;-36
2023/06/01 00:09:03;;;;;;;6.03;2.60;;;17.30;42.50;;;19.21;34.99;97784.00;5063081;28;20397;-37
2023/06/01 00:11:31;;;;;;;5.68;2.80;;;17.40;42.90;;;19.18;34.83;97784.44;5061540;28;20526;-36
2023/06/01 00:13:58;;;;;;;3.88;2.65;;;17.30;43.40;;;19.16;34.93;97789.22;5056979;28;20201;-36
2023/06/01 00:16:26;;;;;;;4.50;2.55;;;17.30;42.50;;;19.15;35.03;97791.06;5075000;28;20032;-36
2023/06/01 00:18:56;;;;;;;5.25;3.00;;;17.30;43.60;;;19.13;35.08;97790.44;5063372;28;20044;-36
2023/06/01 00:21:23;;;;;;;4.40;2.28;;;17.30;43.00;;;19.10;35.27;97788.19;5062946;28;20051;-36
2023/06/01 00:23:51;;;;;;;4.55;2.80;;;17.30;44.00;;;19.06;35.21;97784.25;5059757;28;20091;-35
2023/06/01 00:26:18;;;;;;;5.00;2.40;;;17.20;43.20;;;19.06;35.30;97786.97;5059731;28;20284;-36
2023/06/01 00:28:51;;;;;;;5.35;2.70;;;17.20;43.40;;;19.04;35.45;97783.66;5059363;28;20511;-36
2023/06/01 00:31:19;;;;;;;3.95;2.22;;;17.20;43.60;;;19.01;35.46;97794.84;5059752;28;20049;-36
2023/06/01 00:33:47;;;;;;;5.10;2.85;;;17.20;43.30;;;18.97;35.71;97783.66;5041454;28;20423;-37
2023/06/01 00:36:14;;;;;;;10.70;2.97;;;17.10;44.20;;;18.92;35.57;97785.31;5058978;28;20501;-37
2023/06/01 00:38:42;;;;;;;3.95;2.42;;;17.00;43.80;;;18.88;35.96;97779.50;5061935;28;20059;-36
2023/06/01 00:41:10;;;;;;;6.43;3.25;;;17.00;44.50;;;18.86;36.08;97778.91;5062618;28;20519;-35
2023/06/01 00:43:38;;;;;;;6.18;3.03;;;17.00;44.60;;;18.83;36.31;97776.66;5061046;28;20052;-36
2023/06/01 00:46:06;;;;;;;3.75;2.30;;;17.00;45.80;;;18.80;35.96;97782.44;5064749;28;20389;-36
2023/06/01 00:48:35;;;;;;;6.25;2.60;;;17.00;44.20;;;18.77;36.04;97782.84;5067519;28;20507;-35
2023/06/01 00:51:03;;;;;;;4.03;2.78;;;16.90;44.50;;;18.76;36.09;97782.00;5061075;28;20221;-37
2023/06/01 00:53:31;;;;;;;3.78;2.75;;;16.90;44.30;;;18.73;36.25;97776.19;5060957;28;20064;-36
2023/06/01 00:55:59;;;;;;;3.63;2.60;;;16.90;44.50;;;18.71;36.17;97781.81;5065757;28;20048;-36
2023/06/01 00:58:27;;;;;;;3.65;2.50;;;16.90;44.50;;;18.69;36.18;97773.13;5074568;28;20041;-36
2023/06/01 01:00:55;;;;;;;5.13;2.45;;;16.90;44.70;;;18.67;36.37;97777.91;5062825;28;20044;-36
2023/06/01 01:03:25;;;;;;;4.07;2.88;;;16.90;44.80;;;18.64;36.51;97771.03;5062876;28;20040;-36
2023/06/01 01:06:14;;;;;;;5.28;3.05;;;16.80;45.00;;;18.61;36.63;97767.91;5074181;28;20400;-36
2023/06/01 01:08:55;;;;;;;4.72;2.90;;;16.80;45.70;;;18.57;36.62;97758.59;5060332;28;20493;-36
2023/06/01 01:11:29;;;;;;;3.47;2.00;;;16.80;45.90;;;18.55;36.84;97766.88;5060726;28;20072;-36
2023/06/01 01:14:25;;;;;;;4.93;2.33;;;16.70;45.80;;;18.51;36.79;97765.66;5064766;28;20508;-36
2023/06/01 01:17:32;;;;;;;3.08;2.28;;;16.70;46.10;;;18.44;36.61;97768.38;5039685;28;20040;-36
2023/06/01 01:20:22;;;;;;;3.55;2.47;;;16.70;46.70;;;18.47;36.84;97767.94;5059397;28;20064;-36
2023/06/01 01:23:41;;;;;;;5.25;2.78;;;16.70;46.50;;;18.41;36.83;97758.00;5058601;28;20045;-36
2023/06/01 01:26:29;;;;;;;3.65;2.15;;;16.60;47.50;;;18.39;36.75;97760.06;5053314;28;20040;-36
2023/06/01 01:29:10;;;;;;;4.65;2.85;;;16.50;46.90;;;18.38;36.89;97757.56;5041753;28;20045;-36
2023/06/01 01:31:40;;;;;;;3.28;2.47;;;16.60;46.80;;;18.36;37.24;97759.66;5058705;28;20056;-35
2023/06/01 01:34:09;;;;;;;6.68;2.42;;;16.50;45.90;;;18.34;37.22;97759.88;5052623;28;20488;-35
2023/06/01 01:36:37;;;;;;;4.57;2.35;;;16.60;46.00;;;18.31;37.26;97760.28;5075543;28;20056;-35
2023/06/01 01:39:05;;;;;;;3.90;2.55;;;16.50;46.20;;;18.28;37.44;97758.00;5058763;28;20501;-35
2023/06/01 01:41:33;;;;;;;6.30;2.65;;;16.40;46.20;;;18.25;37.38;97766.50;5055400;28;20041;-35
2023/06/01 01:44:01;;;;;;;3.40;2.63;;;16.40;46.20;;;18.23;37.56;97755.94;5060508;28;20495;-36
2023/06/01 01:46:40;;;;;;;6.32;2.80;;;16.30;46.60;;;18.19;37.58;97761.97;5060716;28;20048;-35
2023/06/01 01:49:18;;;;;;;4.95;2.75;;;16.30;46.70;;;18.19;37.37;97748.47;5042343;28;20050;-35
2023/06/01 01:52:25;;;;;;;3.60;2.00;;;16.40;46.90;;;18.13;37.49;97752.00;5047349;28;20424;-36
2023/06/01 01:54:55;;;;;;;3.95;2.90;;;16.30;47.70;;;18.14;37.90;97759.03;5049860;28;20455;-35
2023/06/01 01:57:24;;;;;;;4.07;2.92;;;16.30;47.00;;;18.09;37.87;97751.59;5047448;28;20045;-35
2023/06/01 01:59:53;;;;;;;6.85;2.60;;;16.20;47.10;;;18.07;38.04;97751.78;5064227;28;20040;-36
2023/06/01 02:02:22;;;;;;;7.65;3.10;;;16.20;47.30;;;18.04;37.98;97752.19;5064760;28;20056;-36
2023/06/01 02:04:50;;;;;;;4.82;2.33;;;16.20;47.30;;;18.00;38.15;97759.03;5061246;28;20080;-35
2023/06/01 02:07:18;;;;;;;4.00;2.53;;;16.20;47.30;;;17.99;38.30;97764.63;5060313;28;20056;-35
2023/06/01 02:09:47;;;;;;;4.75;2.80;;;16.10;47.40;;;17.93;38.50;97752.78;5047157;28;20139;-35
2023/06/01 02:12:15;;;;;;;4.30;2.42;;;16.10;47.80;;;17.89;38.56;97749.72;5063670;28;20052;-35
2023/06/01 02:14:42;;;;;;;4.70;2.45;;;16.10;48.30;;;17.88;38.46;97749.91;5063033;28;20059;-35
2023/06/01 02:17:10;;;;;;;5.68;2.65;;;16.00;48.10;;;17.86;38.49;97750.09;5060577;28;20071;-36
2023/06/01 02:19:37;;;;;;;6.78;2.53;;;16.00;48.00;;;17.83;38.67;97753.16;5063577;28;20268;-35
2023/06/01 02:22:06;;;;;;;4.72;3.03;;;16.00;48.00;;;17.82;38.80;97746.13;5062605;28;20541;-35
2023/06/01 02:24:34;;;;;;;5.72;2.70;;;16.00;48.20;;;17.79;38.80;97743.84;5062804;28;20600;-35
2023/06/01 02:27:02;;;;;;;3.30;2.42;;;16.00;48.20;;;17.79;38.90;97745.72;5062033;28;20041;-35
2023/06/01 02:29:29;;;;;;;5.85;2.40;;;16.00;48.10;;;17.77;38.94;97737.84;5060366;28;20049;-35
2023/06/01 02:31:57;;;;;;;5.45;2.78;;;16.00;48.20;;;17.76;38.75;97746.13;5064998;28;20040;-35
2023/06/01 02:34:25;;;;;;;3.72;2.25;;;16.00;48.20;;;17.74;39.02;97746.34;5063638;28;20048;-35
2023/06/01 02:36:56;;;;;;;5.00;2.67;;;16.00;48.40;;;17.73;39.07;97751.91;5060103;28;20053;-36
2023/06/01 02:39:24;;;;;;;5.47;2.85;;;15.90;48.20;;;17.70;38.94;97754.00;5060305;28;20493;-36
2023/06/01 02:41:52;;;;;;;4.85;3.40;;;15.90;48.60;;;17.70;39.02;97743.22;5063075;28;20048;-36
2023/06/01 02:44:20;;;;;;;3.35;2.25;;;15.90;48.30;;;17.70;39.21;97745.91;5063461;28;20060;-36
2023/06/01 02:46:48;;;;;;;4.97;2.53;;;15.90;48.70;;;17.70;39.08;97751.31;5060778;28;20052;-36
2023/06/01 02:49:16;;;;;;;3.60;2.38;;;15.90;48.60;;;17.68;39.06;97747.97;5059919;28;20049;-36
2023/06/01 02:51:44;;;;;;;4.22;2.80;;;15.90;48.60;;;17.68;39.17;97753.38;5077010;28;20528;-36
2023/06/01 02:54:18;;;;;;;4.22;2.30;;;15.90;48.60;;;17.69;39.14;97740.72;5062985;28;20064;-36
2023/06/01 02:56:46;;;;;;;4.25;2.60;;;15.90;48.40;;;17.67;39.10;97749.00;5062565;28;20419;-36
2023/06/01 02:59:20;;;;;;;;;;;15.90;48.70;;;17.67;38.84;97749.00;5062719;28;20074;-36
2023/06/01 03:01:53;;;;;;;3.83;3.13;;;15.90;50.80;;;17.69;39.19;97746.13;5062567;28;19943;-36
2023/06/01 03:04:21;;;;;;;4.38;2.63;;;15.80;49.00;;;17.63;39.23;97744.25;5063293;28;20431;-36
2023/06/01 03:06:49;;;;;;;5.47;2.97;;;15.80;49.10;;;17.61;39.36;97746.31;5060503;28;20496;-36
2023/06/01 03:09:35;;;;;;;4.38;2.38;;;15.70;49.30;;;17.57;39.67;97743.19;5061469;28;20055;-36
2023/06/01 03:12:10;;;;;;;4.18;2.70;;;15.70;49.60;;;17.55;39.77;97745.25;5062583;28;20052;-36
2023/06/01 03:14:38;;;;;;;4.57;2.50;;;15.70;49.80;;;17.53;39.94;97747.31;5060306;28;20468;-36
2023/06/01 03:17:06;;;;;;;4.63;2.53;;;15.70;50.20;;;17.51;40.00;97747.53;5057746;28;20041;-36
2023/06/01 03:19:33;;;;;;;7.65;2.83;;;15.60;50.00;;;17.47;39.91;97753.53;5056283;28;20405;-36
2023/06/01 03:22:06;;;;;;;6.70;2.80;;;15.60;50.00;;;17.46;39.99;97746.47;5062719;28;20041;-36
2023/06/01 03:24:36;;;;;;;7.07;2.92;;;15.60;50.10;;;17.46;39.94;97754.53;5062102;28;20052;-36
2023/06/01 03:27:04;;;;;;;4.78;2.80;;;15.70;50.30;;;17.45;39.96;97750.22;5059167;28;20044;-36
2023/06/01 03:29:35;;;;;;;4.97;2.88;;;15.70;50.20;;;17.45;40.02;97750.22;5059480;28;20052;-36
2023/06/01 03:32:03;;;;;;;3.97;2.70;;;15.60;50.20;;;17.43;40.28;97749.59;5063516;28;20052;-36
2023/06/01 03:34:32;;;;;;;6.18;3.10;;;15.60;50.20;;;17.44;40.12;97749.34;5045919;28;20048;-36
2023/06/01 03:37:00;;;;;;;3.90;2.72;;;15.70;50.40;;;17.44;40.41;97754.75;5038835;28;20042;-36
2023/06/01 03:39:27;;;;;;;6.82;3.38;;;15.70;50.40;;;17.43;40.46;97750.41;5054877;28;20049;-36
2023/06/01 03:41:55;;;;;;;4.20;2.92;;;15.70;50.30;;;17.44;40.43;97757.44;5061850;28;20048;-36
2023/06/01 03:44:22;;;;;;;4.75;2.65;;;15.70;50.20;;;17.45;40.26;97758.28;5062610;28;20048;-36
2023/06/01 03:46:50;;;;;;;5.18;3.35;;;15.80;50.10;;;17.43;40.41;97758.47;5061026;28;20500;-36
2023/06/01 03:49:18;;;;;;;3.72;2.70;;;15.70;50.50;;;17.44;40.52;97752.03;5058760;28;20135;-36
2023/06/01 03:51:47;;;;;;;6.03;3.05;;;15.60;50.60;;;17.42;40.78;97750.59;5058678;28;20049;-36
2023/06/01 03:54:15;;;;;;;2.90;2.13;;;15.60;50.80;;;17.40;40.71;97756.19;5062020;28;20040;-36
2023/06/01 03:56:44;;;;;;;6.88;2.55;;;15.60;51.20;;;17.38;40.83;97760.13;5060473;28;20048;-36
2023/06/01 03:59:12;;;;;;;6.70;3.33;;;15.60;51.10;;;17.37;40.71;97759.28;5058688;28;20527;-36
2023/06/01 04:01:42;;;;;;;4.57;2.55;;;15.60;51.20;;;17.35;41.23;97764.03;5056363;28;20049;-35
2023/06/01 04:04:12;;;;;;;4.53;2.65;;;15.50;51.80;;;17.36;41.13;97760.31;5045790;28;20051;-36
2023/06/01 04:06:44;;;;;;;5.57;2.50;;;15.50;52.20;;;17.33;41.23;97766.06;5061433;28;20052;-35
2023/06/01 04:09:14;;;;;;;4.70;2.60;;;15.50;52.00;;;17.32;41.35;97759.88;5057387;28;20501;-35
2023/06/01 04:11:43;;;;;;;5.20;2.95;;;15.50;52.60;;;17.31;41.58;97765.44;5058631;28;20049;-35
2023/06/01 04:14:10;;;;;;;6.85;3.03;;;15.50;52.50;;;17.28;41.48;97763.19;5061904;28;20530;-36
2023/06/01 04:16:39;;;;;;;4.57;2.92;;;15.50;53.10;;;17.29;41.75;97764.81;5061179;28;20040;-35
2023/06/01 04:19:07;;;;;;;8.02;2.55;;;15.50;52.50;;;17.30;41.60;97763.81;5058331;28;20045;-35
2023/06/01 04:21:36;;;;;;;4.70;2.78;;;15.60;52.40;;;17.29;41.55;97775.59;5065487;28;20041;-35
2023/06/01 04:24:04;;;;;;;6.72;3.20;;;15.50;52.40;;;17.27;41.82;97767.75;5041987;28;20045;-35
2023/06/01 04:26:32;;;;;;;4.78;2.55;;;15.40;52.60;;;17.29;41.87;97773.75;5054598;28;20053;-35
2023/06/01 04:29:00;;;;;;;4.50;3.55;;;15.50;53.20;;;17.29;41.76;97780.97;5062867;28;20039;-35
2023/06/01 04:31:28;;;;;;;4.60;2.65;;;15.50;53.20;;;17.28;42.02;97774.75;5061171;28;20044;-36
2023/06/01 04:33:56;;;;;;;6.05;2.95;;;15.50;53.30;;;17.27;42.09;97772.28;5042122;28;20080;-35
2023/06/01 04:36:29;;;;;;;6.68;2.88;;;15.40;53.00;;;17.32;41.93;97780.56;5041953;28;20448;-36
2023/06/01 04:38:59;;;;;;;4.20;2.47;;;15.50;52.70;;;17.34;41.65;97777.69;5060687;28;20044;-36
2023/06/01 04:41:28;;;;;;;4.35;3.00;;;15.50;52.70;;;17.34;41.67;97785.75;5061072;28;20480;-36
2023/06/01 04:43:58;;;;;;;4.80;3.40;;;15.50;52.70;;;17.36;41.67;97786.41;5059683;28;20044;-36
2023/06/01 04:46:27;;;;;;;5.40;3.53;;;15.50;52.20;;;17.39;41.62;97785.97;5057631;28;20435;-36
2023/06/01 04:48:59;;;;;;;4.30;2.40;;;15.60;52.20;;;17.38;41.76;97781.63;5062205;28;20040;-36
2023/06/01 04:51:29;;;;;;;8.38;3.60;;;15.60;52.20;;;17.38;42.00;97781.63;5060893;28;20067;-36
2023/06/01 04:53:56;;;;;;;4.82;3.03;;;15.60;52.50;;;17.38;42.04;97787.03;5058106;28;20295;-36
2023/06/01 04:56:29;;;;;;;5.43;3.20;;;15.60;52.60;;;17.39;42.13;97780.59;5057914;28;20044;-41
2023/06/01 04:58:57;;;;;;;3.92;3.00;;;15.70;52.60;;;17.43;42.04;97777.31;5061993;28;20515;-36
2023/06/01 05:01:29;;;;;;;4.70;2.47;;;15.80;52.30;;;17.49;41.78;97778.38;5061246;28;20044;-37
2023/06/01 05:03:58;;;;;;;6.95;3.60;;;15.80;52.00;;;17.52;42.14;97780.63;5058352;28;20519;-36
2023/06/01 05:06:27;;;;;;;5.20;2.88;;;15.90;52.10;;;17.55;41.82;97782.13;5057863;28;20041;-36
2023/06/01 05:08:55;;;;;;;3.55;2.42;;;15.90;51.90;;;17.59;41.74;97777.97;5059523;28;20485;-37
2023/06/01 05:11:23;;;;;;;4.93;3.28;;;16.00;51.60;;;17.61;41.80;97784.00;5061021;28;20045;-37
2023/06/01 05:13:52;;;;;;;6.25;3.38;;;16.00;51.80;;;17.66;42.18;97790.44;5058922;28;20055;-36
2023/06/01 05:16:20;;;;;;;5.20;2.70;;;16.00;52.00;;;17.71;41.81;97795.19;5057595;28;20052;-36
2023/06/01 05:18:50;;;;;;;2.90;2.08;;;16.10;51.60;;;17.75;41.81;97795.63;5040739;28;20058;-37
2023/06/01 05:21:17;;;;;;;6.07;3.10;;;16.20;51.50;;;17.79;41.81;97794.19;5061295;28;20404;-36
2023/06/01 05:23:45;;;;;;;7.38;3.00;;;16.20;51.40;;;17.82;41.86;97804.56;5047738;28;20048;-36
2023/06/01 05:26:13;;;;;;;6.18;3.13;;;16.20;51.60;;;17.86;41.93;97792.38;5061653;28;20044;-36
2023/06/01 05:28:41;;;;;;;5.68;2.55;;;16.30;51.60;;;17.89;41.90;97794.63;5061428;28;20060;-36
2023/06/01 05:31:12;;;;;;;5.88;3.13;;;16.40;51.60;;;17.93;41.70;97797.75;5064550;28;20047;-36
2023/06/01 05:33:44;;;;;;;6.28;2.72;;;16.40;51.20;;;17.92;41.80;97799.63;5048016;28;20048;-36
2023/06/01 05:36:12;;;;;;;5.50;2.53;;;16.50;51.20;;;17.96;41.90;97789.28;5061388;28;20081;-36
2023/06/01 05:38:39;;;;;;;3.85;2.40;;;16.50;51.30;;;17.99;41.91;97800.47;5069107;28;20037;-36
2023/06/01 05:41:07;;;;;;;4.07;2.38;;;16.60;51.30;;;18.02;41.89;97794.66;5061055;28;20528;-36
2023/06/01 05:43:36;;;;;;;5.93;2.85;;;16.70;51.10;;;18.04;41.78;97795.28;5057515;28;20048;-36
2023/06/01 05:46:06;;;;;;;4.22;2.90;;;16.70;50.80;;;18.05;42.04;97793.44;5064294;28;20044;-36
2023/06/01 05:48:34;;;;;;;10.40;3.55;;;16.80;50.90;;;18.05;42.15;97796.97;5064451;28;20040;-36
2023/06/01 05:51:05;;;;;;;4.47;2.78;;;16.70;51.00;;;18.02;42.05;97797.38;5060595;28;20044;-36
2023/06/01 05:53:32;;;;;;;4.55;3.03;;;16.70;51.20;;;18.05;42.21;97796.13;5057331;28;20052;-36
2023/06/01 05:56:01;;;;;;;4.43;2.75;;;16.70;51.30;;;18.10;42.01;97794.47;5062745;28;20124;-36
2023/06/01 05:58:29;;;;;;;3.47;2.63;;;16.70;51.00;;;18.14;41.95;97796.75;5064390;28;20036;-36
2023/06/01 06:00:58;;;;;;;7.88;3.03;;;16.60;51.00;;;18.10;41.69;97797.16;5061075;28;20049;-36
2023/06/01 06:03:26;;;;;;;4.35;3.28;;;16.70;51.10;;;18.12;41.96;97793.44;5062047;28;20041;-36
2023/06/01 06:05:53;;;;;;;4.72;2.70;;;16.60;51.30;;;18.11;41.86;97798.00;5062331;28;20040;-36
2023/06/01 06:08:21;;;;;;;4.47;2.78;;;16.60;51.60;;;18.12;41.83;97802.34;5063968;28;20045;-35
2023/06/01 06:10:49;;;;;;;6.35;2.90;;;16.60;51.30;;;18.06;42.21;97806.69;5064447;28;20555;-35
2023/06/01 06:13:17;;;;;;;5.03;2.83;;;16.50;51.90;;;18.07;42.34;97802.97;5060559;28;20056;-36
2023/06/01 06:15:44;;;;;;;9.13;3.38;;;16.50;52.10;;;18.06;42.32;97797.78;5059777;28;20051;-35
2023/06/01 06:18:12;;;;;;;4.60;3.40;;;16.50;52.00;;;18.08;42.46;97798.41;5063909;28;20412;-35
2023/06/01 06:20:40;;;;;;;7.95;3.30;;;16.60;52.10;;;18.07;42.74;97802.97;5065302;28;20051;-35
2023/06/01 06:23:07;;;;;;;5.35;3.00;;;16.60;52.80;;;18.13;42.45;97795.13;5065194;28;20043;-35
2023/06/01 06:25:36;;;;;;;4.97;3.72;;;16.60;52.30;;;18.18;42.18;97803.38;5065374;28;20051;-35
2023/06/01 06:28:04;;;;;;;6.28;3.53;;;16.70;51.70;;;18.23;42.33;97809.00;5061817;28;20052;-35
2023/06/01 06:30:32;;;;;;;3.90;2.80;;;16.80;51.80;;;18.28;42.29;97804.66;5061680;28;20041;-35
2023/06/01 06:32:59;;;;;;;4.78;3.00;;;16.90;51.20;;;18.36;42.19;97802.78;5062872;28;20053;-35
2023/06/01 06:35:27;;;;;;;4.18;2.80;;;17.00;50.90;;;18.42;42.46;97808.19;5065251;28;20040;-35
2023/06/01 06:37:55;;;;;;;5.75;3.42;;;17.10;51.90;;;18.48;42.47;97807.34;5061908;28;20412;-35
2023/06/01 06:40:22;;;;;;;4.97;3.28;;;17.10;51.70;;;18.54;42.18;97804.88;5067356;28;20044;-35
2023/06/01 06:42:50;;;;;;;4.78;2.85;;;17.20;51.20;;;18.57;42.23;97802.59;5060927;28;20041;-35
2023/06/01 06:45:18;;;;;;;7.05;2.90;;;17.20;51.30;;;18.65;42.23;97807.75;5063795;28;20048;-35
2023/06/01 06:47:46;;;;;;;6.35;3.00;;;17.30;51.60;;;18.70;41.93;97796.31;5063401;28;20542;-35
2023/06/01 06:50:13;;;;;;;4.70;2.80;;;17.30;51.00;;;18.77;41.90;97805.25;5061362;28;20041;-35
2023/06/01 06:52:41;;;;;;;4.82;3.20;;;17.40;51.00;;;18.80;42.06;97802.16;5061223;28;20056;-35
2023/06/01 06:55:09;;;;;;;5.63;2.80;;;17.50;50.90;;;18.87;41.58;97808.38;5061369;28;20041;-35
2023/06/01 06:57:38;;;;;;;8.65;4.05;;;17.60;50.00;;;18.94;41.31;97802.97;5061145;28;20041;-35
2023/06/01 07:00:08;;;;;;;3.90;3.08;;;17.70;49.50;;;19.01;40.95;97803.78;5063533;28;20415;-35
2023/06/01 07:02:36;;;;;;;4.22;3.08;;;17.80;48.70;;;19.05;40.87;97805.00;5064320;28;20538;-35
2023/06/01 07:05:05;;;;;;;4.57;3.60;;;17.90;48.70;;;19.14;40.74;97805.63;5060513;28;20437;-34
2023/06/01 07:07:33;;;;;;;5.00;2.90;;;17.90;48.50;;;19.20;40.24;97812.84;5060993;28;20037;-35
2023/06/01 07:10:00;;;;;;;5.20;3.05;;;18.00;47.90;;;19.25;40.26;97806.81;5062972;28;20416;-35
2023/06/01 07:12:28;;;;;;;5.18;3.40;;;18.00;47.90;;;19.25;39.86;97806.81;5064361;28;20047;-35
2023/06/01 07:14:56;;;;;;;5.07;3.30;;;18.00;47.30;;;19.34;40.04;97810.13;5062847;28;20040;-35
2023/06/01 07:17:23;;;;;;;4.72;3.08;;;18.00;47.60;;;19.36;40.06;97810.72;5060916;28;20048;-35
2023/06/01 07:19:52;;;;;;;4.85;3.42;;;18.10;48.10;;;19.39;39.98;97808.44;5060659;28;20060;-49
2023/06/01 07:22:21;;;;;;;6.90;3.33;;;18.20;47.70;;;19.45;39.80;97810.28;5063383;28;20511;-47
2023/06/01 07:24:48;;;;;;;12.23;3.85;;;18.20;47.40;;;19.47;39.88;97810.88;5063747;28;20037;-52
2023/06/01 07:27:17;;;;;;;5.03;3.38;;;18.30;47.60;;;19.52;39.76;97810.22;5059602;28;20048;-47
2023/06/01 07:29:45;;;;;;;4.13;2.70;;;18.30;47.20;;;19.56;39.71;97808.78;5060899;28;20041;-53
2023/06/01 07:32:13;;;;;;;7.55;3.28;;;18.40;47.20;;;19.62;39.45;97812.50;5051321;28;20052;-52
2023/06/01 07:34:41;;;;;;;4.57;3.03;;;18.40;46.80;;;19.67;39.70;97807.25;5065838;28;20423;-54
2023/06/01 07:37:09;;;;;;;3.72;2.95;;;18.50;47.10;;;19.74;39.60;97801.88;5061079;28;20041;-54
2023/06/01 07:39:44;;;;;;;6.07;3.30;;;18.60;47.20;;;19.82;39.84;97805.13;5060535;28;20053;-56
2023/06/01 07:42:12;;;;;;;5.20;3.13;;;18.70;47.20;;;19.91;39.44;97802.19;5063051;28;20091;-53
2023/06/01 07:44:39;;;;;;;6.60;3.50;;;18.80;47.00;;;19.95;39.56;97793.44;5061810;28;20037;-53
2023/06/01 07:47:07;;;;;;;7.65;3.83;;;18.80;47.20;;;20.02;39.65;97799.59;5061123;28;20057;-54
2023/06/01 07:49:36;;;;;;;8.18;3.88;;;18.80;47.00;;;20.08;39.21;97802.50;5060425;28;20041;-54
2023/06/01 07:52:05;;;;;;;5.85;3.38;;;18.90;46.50;;;20.16;38.76;97803.06;5042918;28;20432;-54
2023/06/01 07:54:36;;;;;;;5.72;3.35;;;19.00;45.70;;;20.22;38.43;97798.63;5062338;28;20423;-54
2023/06/01 07:57:05;;;;;;;5.80;3.25;;;19.00;45.00;;;20.31;38.33;97800.03;5059192;28;20504;-55
2023/06/01 07:59:33;;;;;;;4.75;2.95;;;19.10;45.10;;;20.38;38.30;97794.59;5059835;28;20033;-54
2023/06/01 08:02:01;;;;;;;6.07;4.10;;;19.20;44.90;;;20.49;37.97;97802.00;5061632;28;20044;-55
2023/06/01 08:04:33;;;;;;;5.93;3.22;;;19.30;44.50;;;20.56;37.78;97801.91;5063415;28;20484;-55
2023/06/01 08:07:06;;;;;;;7.75;3.78;;;19.40;44.00;;;20.63;37.38;97797.31;5061863;28;20044;-54
2023/06/01 08:09:37;;;;;;;13.93;5.05;;;19.50;43.90;;;20.68;37.23;97794.75;5060018;28;20052;-54
2023/06/01 08:12:06;;;;;;;5.85;3.15;;;19.50;43.60;;;20.74;37.07;97801.16;5060995;28;20056;-54
2023/06/01 08:14:34;;;;;;;7.97;3.60;;;19.60;43.70;;;20.77;37.37;97798.03;5063309;28;20040;-54
2023/06/01 08:17:03;;;;;;;8.45;3.90;;;19.60;43.70;;;20.70;37.53;97798.06;5061299;28;20081;-55
2023/06/01 08:19:31;;;;;;;6.45;4.07;;;19.60;43.90;;;20.80;37.50;97794.84;5060091;28;20069;-50
2023/06/01 08:21:58;;;;;;;6.63;3.58;;;19.70;44.20;;;20.84;37.26;97796.91;5060724;28;20049;-52
2023/06/01 08:24:26;;;;;;;7.85;4.30;;;19.70;43.90;;;20.92;37.52;97797.66;5062276;28;20044;-52
2023/06/01 08:26:58;;;;;;;4.35;3.53;;;19.70;44.00;;;20.96;37.53;97802.41;5062575;28;20052;-52
2023/06/01 08:29:27;;;;;;;9.35;4.05;;;19.80;43.90;;;21.01;37.28;97796.31;5059375;28;20049;-52
2023/06/01 08:32:10;;;;;;;7.15;3.83;;;19.80;43.60;;;21.07;37.47;97792.69;5061989;28;20052;-51
2023/06/01 08:34:37;;;;;;;6.80;4.07;;;19.80;43.90;;;21.12;37.19;97790.16;5063155;28;20500;-52
2023/06/01 08:37:05;;;;;;;4.22;3.20;;;19.90;43.70;;;21.16;37.52;97787.81;5060811;28;20423;-53
2023/06/01 08:39:33;;;;;;;6.80;4.18;;;20.00;43.70;;;21.21;37.14;97788.81;5059467;28;20384;-52
2023/06/01 08:42:45;;;;;;;6.35;4.10;;;20.10;43.90;;;21.26;37.25;97782.69;5060482;28;20425;-53
2023/06/01 08:45:13;;;;;;;13.30;3.88;;;20.20;43.00;;;;;;5042978;28;20044;-54
2023/06/01 08:47:41;;;;;;;5.47;3.75;;;20.20;43.30;;;21.41;36.79;97777.72;5059308;28;20060;-54
2023/06/01 08:50:11;;;;;;;5.10;4.53;;;20.30;43.40;;;21.49;36.61;97783.94;5061683;28;20052;-53
2023/06/01 08:52:41;;;;;;;7.35;3.80;;;20.40;43.30;;;21.54;36.95;97778.63;5062554;28;20040;-54
2023/06/01 08:55:09;;;;;;;5.60;4.20;;;20.40;43.30;;;21.63;36.74;97782.69;5058903;28;20526;-52
2023/06/01 08:57:40;;;;;;;8.05;4.72;;;20.50;43.40;;;21.70;36.21;97783.44;5058821;28;20412;-53
2023/06/01 09:00:13;;;;;;;9.27;4.05;;;20.60;41.90;;;21.72;36.53;97783.22;5061752;28;20041;-50
2023/06/01 09:02:43;;;;;;;8.48;4.28;;;20.60;42.50;;;21.81;35.98;97781.84;5062282;28;20064;-51
2023/06/01 09:05:12;;;;;;;8.90;4.38;;;20.70;42.20;;;21.87;36.26;97780.06;5059742;28;20537;-50
2023/06/01 09:07:41;;;;;;;6.65;5.25;;;20.70;42.10;;;21.91;35.61;97776.69;5059294;28;20055;-53
2023/06/01 09:10:11;;;;;;;8.35;4.60;;;20.80;41.80;;;21.95;35.85;97777.03;5061714;28;20044;-52
2023/06/01 09:12:50;;;;;;;7.80;4.43;;;20.80;42.20;;;22.03;35.74;97779.41;5062115;28;20043;-53
2023/06/01 09:15:20;;;;;;;5.05;3.65;;;20.90;42.00;;;22.09;35.58;97772.25;5060698;28;20040;-54
2023/06/01 09:17:50;;;;;;;9.02;4.53;;;20.90;41.60;;;22.13;35.57;97776.97;5058680;28;20045;-53
2023/06/01 09:20:28;;;;;;;6.60;4.53;;;21.00;41.80;;;22.18;35.81;97779.81;5051139;28;20033;-55
2023/06/01 09:22:56;;;;;;;7.47;4.35;;;21.10;41.70;;;22.26;35.68;97769.72;5059189;28;20049;-55
2023/06/01 09:25:32;;;;;;;10.93;4.30;;;21.10;41.70;;;22.31;35.40;97767.13;5062633;28;20397;-55
2023/06/01 09:28:02;;;;;;;6.10;4.03;;;21.20;41.30;;;22.38;35.53;97774.09;5060320;28;20064;-52
2023/06/01 09:30:42;;;;;;;8.48;4.35;;;21.30;41.80;;;22.42;35.96;97769.84;5057649;28;20555;-54
2023/06/01 09:33:15;;;;;;;8.85;4.10;;;21.40;41.50;;;22.51;35.67;97764.09;5061759;28;20349;-54
2023/06/01 09:35:47;;;;;;;5.45;4.20;;;21.40;41.70;;;22.52;35.33;97773.88;5063461;28;20404;-54
2023/06/01 09:38:23;;;;;;;5.43;4.72;;;21.50;41.50;;;22.57;35.58;97776.72;5060193;28;20409;-54
2023/06/01 09:41:00;;;;;;;5.82;4.30;;;21.50;41.70;;;22.63;35.46;97766.81;5029631;28;20045;-53
2023/06/01 09:43:28;;;;;;;6.40;4.95;;;21.60;41.40;;;22.73;35.08;97761.63;5037700;28;20048;-53
2023/06/01 09:46:13;;;;;;;7.82;4.45;;;21.60;40.70;;;22.80;35.27;97763.13;5029897;28;20041;-55
2023/06/01 09:48:43;;;;;;;7.80;4.93;;;21.70;40.50;;;22.86;35.18;97755.94;5039365;28;20053;-54
2023/06/01 09:51:29;;;;;;;8.68;4.47;;;21.80;40.80;;;22.89;35.44;97765.50;5035711;28;20405;-54
2023/06/01 09:53:57;;;;;;;5.38;3.80;;;21.90;41.10;;;22.99;35.59;97754.84;5038475;28;20060;-55
2023/06/01 09:56:25;;;;;;;5.22;4.10;;;22.00;41.30;;;22.96;35.31;97753.44;5037567;28;20477;-55
2023/06/01 09:58:59;;;;;;;5.07;4.20;;;22.10;40.50;;;22.98;34.99;97754.03;5041233;28;20482;-51
2023/06/01 10:01:31;;;;;;;10.07;4.90;;;22.10;39.90;;;23.07;34.95;97753.69;5037703;28;20055;-55
2023/06/01 10:04:01;;;;;;;6.93;4.63;;;22.10;40.20;;;23.14;34.89;97755.19;5035985;28;20049;-54
2023/06/01 10:06:33;;;;;;;7.25;4.65;;;22.10;40.40;;;23.25;34.81;97744.56;5035751;28;20053;-54
2023/06/01 10:09:01;;;;;;;7.45;5.00;;;22.20;40.10;;;23.35;34.71;97745.59;5042113;28;20472;-55
2023/06/01 10:11:29;;;;;;;8.10;4.55;;;22.30;39.90;;;23.28;34.77;97739.47;5062981;28;20041;-56
2023/06/01 10:13:59;;;;;;;7.00;5.18;;;22.40;40.10;;;23.40;34.74;97742.16;5063249;28;20057;-55
2023/06/01 10:16:27;;;;;;;8.63;5.55;;;22.40;40.00;;;23.49;34.57;97734.44;5062587;28;20048;-55
2023/06/01 10:18:55;;;;;;;7.65;4.72;;;22.50;40.20;;;23.56;34.75;97732.41;5063757;28;20093;-54
2023/06/01 10:21:24;;;;;;;8.05;5.38;;;22.50;40.40;;;23.60;35.19;97739.00;5052709;28;20412;-54
2023/06/01 10:23:51;;;;;;;8.00;5.57;;;22.60;40.60;;;23.63;35.15;97724.09;5062177;28;20045;-56
2023/06/01 10:26:21;;;;;;;6.07;4.47;;;22.60;41.00;;;23.70;35.09;97730.22;5065273;28;20047;-53
2023/06/01 10:28:50;;;;;;;6.40;4.60;;;22.70;40.80;;;23.72;34.98;97728.09;5064287;28;20059;-55
2023/06/01 10:31:54;;;;;;;6.07;4.63;;;22.80;40.40;;;23.76;34.91;97730.06;5043785;28;20048;-57
2023/06/01 10:34:50;;;;;;;6.82;4.25;;;23.00;39.90;;;23.89;33.98;97728.16;4984034;28;20522;-56